Time;durP1;ratioP1;P1;durP2;ratioP2;P2;SDS_P1;SDS_P2;PMS_P1;PMS_P2;Temp;Humidity;BMP_temperature;BMP_pressure;BME280_temperature;BME280_humidity;BME280_pressure;Samples;Min_cycle;Max_cycle;Signal;HPM_P1;HPM_P2
2021/03/11 00:01:20;;;;;;;10.83;6.00;;;7.20;1.00;;;10.59;45.84;97752.91;4986672;28;20254;-72
2021/03/11 00:03:47;;;;;;;13.87;6.53;;;7.20;1.00;;;10.67;45.85;97752.69;4981225;28;20201;-73
2021/03/11 00:06:14;;;;;;;13.00;5.90;;;7.20;1.00;;;10.74;45.17;97750.81;4991883;28;20243;-73
2021/03/11 00:08:40;;;;;;;10.87;6.13;;;7.20;1.00;;;10.77;45.02;97748.59;4989022;28;20209;-73
2021/03/11 00:11:07;;;;;;;12.50;6.70;;;7.20;1.00;;;10.70;45.72;97736.28;4984085;28;20612;-73
2021/03/11 00:13:33;;;;;;;11.13;5.80;;;7.20;1.00;;;10.76;46.07;97749.59;4983867;28;20220;-72
2021/03/11 00:16:00;;;;;;;12.37;6.23;;;7.20;1.00;;;10.78;45.92;97738.72;4989619;28;20247;-73
2021/03/11 00:18:26;;;;;;;10.03;5.83;;;7.20;1.00;;;10.54;46.32;97739.38;4980550;28;20212;-73
2021/03/11 00:20:54;;;;;;;11.63;6.80;;;7.20;1.00;;;10.60;46.17;97739.34;4976854;28;20205;-73
2021/03/11 00:23:20;;;;;;;11.33;7.13;;;7.20;1.00;;;10.68;47.21;97736.50;4988591;28;20207;-73
2021/03/11 00:25:46;;;;;;;12.03;6.17;;;7.20;1.00;;;10.73;46.75;97743.06;4988739;28;20226;-73
2021/03/11 00:28:13;;;;;;;9.90;6.10;;;7.20;1.00;;;10.79;46.43;97741.19;4984123;28;20208;-73
2021/03/11 00:30:39;;;;;;;11.93;6.60;;;7.20;1.00;;;10.75;46.47;97734.63;4986639;28;20200;-73
2021/03/11 00:33:06;;;;;;;9.70;5.63;;;7.20;1.00;;;10.93;45.59;97734.78;4983454;28;20212;-72
2021/03/11 00:35:32;;;;;;;12.20;5.97;;;7.20;1.00;;;10.78;46.63;97736.88;4990252;28;20236;-72
2021/03/11 00:37:59;;;;;;;10.70;6.20;;;7.20;1.00;;;10.93;46.48;97740.13;4973074;28;20212;-73
2021/03/11 00:40:26;;;;;;;12.20;5.80;;;7.30;1.00;;;10.88;46.30;97740.97;4982048;28;20230;-72
2021/03/11 00:42:53;;;;;;;11.33;5.60;;;7.20;1.00;;;10.75;46.62;97734.63;4981511;28;20211;-75
2021/03/11 00:45:20;;;;;;;12.73;6.23;;;7.40;1.00;;;11.01;46.37;97733.75;4987589;28;20224;-73
2021/03/11 00:47:46;;;;;;;9.27;5.60;;;7.30;1.00;;;10.98;46.67;97726.13;4988042;28;20203;-73
2021/03/11 00:50:15;;;;;;;9.67;5.47;;;7.30;1.00;;;10.80;47.35;97724.13;4985889;28;20203;-72
2021/03/11 00:52:42;;;;;;;11.50;6.03;;;7.30;1.00;;;10.99;46.95;97725.09;4979806;28;20205;-73
2021/03/11 00:55:13;;;;;;;9.90;6.00;;;7.30;1.00;;;10.57;47.69;97723.78;4977082;28;20240;-73
2021/03/11 00:57:40;;;;;;;10.43;6.00;;;7.30;1.00;;;11.00;47.46;97726.72;4981397;28;20208;-73
2021/03/11 01:00:10;;;;;;;11.37;6.10;;;7.30;1.00;;;11.03;47.11;97729.84;4986281;28;20658;-74
2021/03/11 01:02:36;;;;;;;13.70;6.47;;;7.30;1.00;;;10.76;48.52;97728.25;4985421;28;20209;-73
2021/03/11 01:05:03;;;;;;;11.67;6.50;;;7.30;1.00;;;10.85;47.79;97736.88;4980876;28;20244;-73
2021/03/11 01:07:30;;;;;;;11.53;6.10;;;7.30;1.00;;;10.69;48.65;97738.13;4983035;28;20207;-72
2021/03/11 01:09:56;;;;;;;11.10;6.10;;;7.30;1.00;;;10.97;47.97;97727.97;4986199;28;20231;-73
2021/03/11 01:12:24;;;;;;;11.10;5.70;;;7.30;1.00;;;10.93;47.95;97721.44;4984821;28;20259;-73
2021/03/11 01:14:50;;;;;;;10.77;6.40;;;7.30;1.00;;;10.89;48.02;97725.56;4985953;28;20200;-73
2021/03/11 01:17:17;;;;;;;14.30;6.67;;;7.30;1.00;;;10.85;49.34;97713.66;4989000;28;20211;-72
2021/03/11 01:19:43;;;;;;;10.70;6.13;;;7.30;1.00;;;10.77;49.19;97703.22;4991316;28;20672;-72
2021/03/11 01:22:09;;;;;;;10.23;6.27;;;7.30;1.00;;;10.97;48.76;97711.16;4978868;28;20211;-73
2021/03/11 01:24:36;;;;;;;9.33;5.63;;;7.20;1.00;;;10.99;48.89;97706.41;4980456;28;20208;-73
2021/03/11 01:27:02;;;;;;;11.43;6.07;;;7.20;1.00;;;10.70;49.58;97688.25;4990613;28;20211;-72
2021/03/11 01:29:30;;;;;;;9.57;6.17;;;7.20;1.00;;;10.73;49.67;97675.31;4988388;28;20238;-72
2021/03/11 01:31:56;;;;;;;10.30;5.77;;;7.20;1.00;;;10.50;50.89;97680.25;4991277;28;20204;-72
2021/03/11 01:34:23;;;;;;;8.17;5.30;;;7.30;1.00;;;10.92;49.52;97665.59;4982685;28;20212;-72
2021/03/11 01:36:49;;;;;;;10.53;5.23;;;7.30;1.00;;;11.07;48.80;97660.78;4992756;28;20242;-74
2021/03/11 01:39:16;;;;;;;11.27;6.00;;;7.30;1.00;;;11.09;48.90;97650.72;4992145;28;20210;-75
2021/03/11 01:41:42;;;;;;;9.80;5.87;;;7.30;1.00;;;10.58;50.32;97633.88;4989180;28;20209;-72
2021/03/11 01:44:09;;;;;;;10.40;5.40;;;7.30;1.00;;;10.86;49.66;97626.38;4982064;28;20204;-73
2021/03/11 01:46:36;;;;;;;8.60;5.10;;;7.30;1.00;;;11.01;49.52;97619.72;4979393;28;20308;-73
2021/03/11 01:49:03;;;;;;;11.03;5.67;;;7.30;1.00;;;10.97;50.27;97597.16;4986786;28;20237;-73
2021/03/11 01:51:30;;;;;;;10.47;5.20;;;7.30;1.00;;;11.10;49.80;97599.75;4987753;28;20271;-73
2021/03/11 01:53:56;;;;;;;10.47;5.23;;;7.30;1.00;;;10.69;51.55;97585.19;4982877;28;20205;-73
2021/03/11 01:56:23;;;;;;;8.73;4.50;;;7.20;1.00;;;10.90;51.17;97588.38;4993610;28;20266;-73
2021/03/11 01:58:50;;;;;;;10.93;4.37;;;7.20;1.00;;;10.92;51.26;97582.81;4977001;28;20206;-72
2021/03/11 02:01:16;;;;;;;10.07;5.20;;;7.30;1.00;;;10.22;55.15;97572.22;4984468;28;20212;-73
2021/03/11 02:03:44;;;;;;;7.63;4.23;;;7.30;1.00;;;10.56;54.15;97558.56;4991870;28;20254;-73
2021/03/11 02:06:11;;;;;;;8.83;5.03;;;7.20;1.00;;;10.95;52.25;97561.84;4984800;28;20298;-73
2021/03/11 02:08:38;;;;;;;7.80;4.40;;;7.20;1.00;;;10.86;54.08;97546.31;4984977;28;20714;-73
2021/03/11 02:11:07;;;;;;;5.67;2.97;;;7.20;1.00;;;10.64;55.05;97547.63;4992182;28;20204;-73
2021/03/11 02:13:42;;;;;;;6.90;3.40;;;7.30;1.00;;;10.94;54.59;97525.50;4993947;28;20580;-73
2021/03/11 02:16:20;;;;;;;6.97;3.87;;;7.40;1.00;;;10.72;56.20;97515.38;4981236;28;20305;-73
2021/03/11 02:18:52;;;;;;;5.87;3.07;;;7.30;1.00;;;10.84;56.12;97513.66;4990446;28;20691;-73
2021/03/11 02:21:26;;;;;;;9.73;2.83;;;7.30;1.00;;;10.88;55.67;97506.88;4983156;28;20205;-73
2021/03/11 02:24:29;;;;;;;6.50;3.50;;;7.30;1.00;;;11.11;54.94;97504.47;4990727;28;20269;-73
2021/03/11 02:27:24;;;;;;;6.47;3.43;;;7.30;1.00;;;10.86;56.92;97498.25;4974664;28;20224;-72
2021/03/11 02:29:54;;;;;;;4.97;3.00;;;7.30;1.00;;;10.54;59.02;97477.91;4983515;28;20542;-72
2021/03/11 02:32:23;;;;;;;7.83;3.67;;;7.20;1.00;;;10.65;58.68;97469.25;4992084;28;20212;-73
2021/03/11 02:34:53;;;;;;;5.70;3.03;;;7.20;1.00;;;10.96;57.40;97458.56;4986115;28;20263;-73
2021/03/11 02:37:26;;;;;;;3.97;2.50;;;7.20;1.00;;;10.45;61.35;97448.00;4980666;28;20622;-73
2021/03/11 02:39:57;;;;;;;4.80;2.70;;;7.10;1.00;;;10.63;59.38;97451.81;4982406;28;20288;-73
2021/03/11 02:42:25;;;;;;;9.13;3.03;;;7.10;1.00;;;10.63;59.31;97451.81;4991425;28;20208;-74
2021/03/11 02:44:54;;;;;;;5.00;2.77;;;7.20;1.00;;;10.71;59.19;97447.84;4980785;28;20207;-73
2021/03/11 02:47:22;;;;;;;4.97;2.80;;;7.30;1.00;;;10.77;58.76;97441.66;4989458;28;20204;-74
2021/03/11 02:49:49;;;;;;;4.63;2.90;;;7.20;1.00;;;10.84;58.01;97447.75;4992043;28;20208;-74
2021/03/11 02:52:16;;;;;;;6.23;3.10;;;7.30;1.00;;;10.34;60.73;97432.66;4986801;28;20223;-74
2021/03/11 02:54:45;;;;;;;6.53;3.20;;;7.20;1.00;;;10.14;60.71;97431.16;4983136;28;20227;-74
2021/03/11 02:57:16;;;;;;;6.97;3.20;;;7.30;1.00;;;10.34;58.86;97430.00;4990572;28;20228;-74
2021/03/11 02:59:44;;;;;;;7.03;3.40;;;7.30;1.00;;;10.56;58.81;97420.63;4982016;28;20212;-74
2021/03/11 03:02:13;;;;;;;8.33;4.07;;;7.30;1.00;;;10.31;60.49;97413.63;4988722;28;20557;-74
2021/03/11 03:04:41;;;;;;;8.33;3.03;;;7.30;1.00;;;10.90;56.53;97420.19;4981895;28;20200;-74
2021/03/11 03:07:10;;;;;;;6.77;3.07;;;7.20;1.00;;;10.97;55.70;97415.59;4992118;28;20721;-74
2021/03/11 03:09:38;;;;;;;6.57;3.10;;;7.20;1.00;;;10.83;57.70;97403.41;4988800;28;20201;-74
2021/03/11 03:12:07;;;;;;;6.60;3.70;;;7.20;1.00;;;11.00;56.61;97407.19;4987059;28;20262;-74
2021/03/11 03:14:33;;;;;;;5.00;3.13;;;7.20;1.00;;;10.44;58.63;97385.00;4986439;28;20207;-74
2021/03/11 03:17:00;;;;;;;7.83;3.80;;;7.20;1.00;;;10.64;56.93;97391.03;4987600;28;20282;-74
2021/03/11 03:19:27;;;;;;;5.27;3.33;;;7.10;1.00;;;10.20;58.97;97388.44;4977302;28;20216;-74
2021/03/11 03:21:55;;;;;;;7.73;3.83;;;7.10;1.00;;;10.52;57.97;97384.75;4987840;28;20673;-74
2021/03/11 03:24:22;;;;;;;6.50;3.23;;;7.10;1.00;;;10.55;56.35;97375.50;4979163;28;20264;-73
2021/03/11 03:26:49;;;;;;;6.10;3.40;;;7.10;1.00;;;10.48;59.20;97366.72;4992374;28;20230;-74
2021/03/11 03:29:15;;;;;;;7.83;3.97;;;7.10;1.00;;;10.45;63.22;97359.97;4985144;28;20242;-74
2021/03/11 03:31:42;;;;;;;6.57;3.33;;;7.10;1.00;;;10.51;66.92;97350.28;4989138;28;20291;-74
2021/03/11 03:34:08;;;;;;;9.00;4.33;;;7.00;1.00;;;10.43;65.05;97356.72;4977390;28;20666;-74
2021/03/11 03:36:35;;;;;;;6.40;3.63;;;7.00;1.00;;;10.55;66.12;97351.50;4980015;28;20240;-73
2021/03/11 03:39:03;;;;;;;6.20;3.10;;;6.90;1.00;;;10.81;66.60;97336.06;4986777;28;20210;-74
2021/03/11 03:41:31;;;;;;;6.43;3.57;;;6.90;1.00;;;10.89;63.87;97354.50;4983322;28;20669;-74
2021/03/11 03:43:59;;;;;;;6.93;3.87;;;6.90;1.00;;;10.66;66.58;97340.94;4986559;28;20204;-74
2021/03/11 03:46:28;;;;;;;7.70;4.20;;;6.90;1.00;;;10.58;70.83;97325.19;4986990;28;20231;-74
2021/03/11 03:48:57;;;;;;;8.13;3.97;;;6.90;1.00;;;10.74;68.96;97324.66;4979284;28;20200;-74
2021/03/11 03:51:27;;;;;;;11.87;4.10;;;6.80;1.00;;;10.45;69.91;97325.28;4975727;28;20304;-74
2021/03/11 03:54:01;;;;;;;5.80;3.33;;;6.90;1.00;;;10.68;72.52;97320.19;4980751;28;20208;-74
2021/03/11 03:56:34;;;;;;;9.77;3.60;;;6.90;1.00;;;10.84;66.63;97329.50;4985105;28;20239;-74
2021/03/11 03:59:06;;;;;;;8.23;4.03;;;6.90;1.00;;;10.73;67.32;97332.06;4991903;28;20265;-74
2021/03/11 04:01:36;;;;;;;6.53;3.47;;;7.00;1.00;;;10.69;67.60;97313.81;4986656;28;20231;-74
2021/03/11 04:04:06;;;;;;;4.53;2.90;;;7.00;1.00;;;10.97;69.77;97316.03;4986625;28;20211;-74
2021/03/11 04:06:34;;;;;;;7.93;2.70;;;7.50;1.00;;;10.93;67.51;97315.66;4981432;28;20240;-73
2021/03/11 04:09:06;;;;;;;6.03;2.60;;;7.60;1.00;;;11.42;67.19;97328.09;4984545;28;20575;-74
2021/03/11 04:11:34;;;;;;;4.73;2.27;;;8.00;1.00;;;11.63;65.76;97327.66;4985041;28;20331;-74
2021/03/11 04:14:02;;;;;;;6.53;2.70;;;8.00;1.00;;;11.97;64.02;97320.88;4990599;28;20215;-74
2021/03/11 04:16:30;;;;;;;5.70;2.30;;;8.10;1.00;;;11.98;63.50;97328.66;4983298;28;20236;-74
2021/03/11 04:18:58;;;;;;;3.33;2.00;;;8.10;1.00;;;11.71;66.69;97324.69;4982389;28;20207;-74
2021/03/11 04:21:25;;;;;;;3.00;2.27;;;8.20;1.00;;;11.87;65.91;97318.75;4990039;28;20354;-74
2021/03/11 04:23:53;;;;;;;5.27;2.10;;;8.30;1.00;;;11.86;66.28;97305.59;4979195;28;20212;-74
2021/03/11 04:26:21;;;;;;;7.50;2.73;;;8.40;1.00;;;11.81;65.65;97303.56;4988688;28;20231;-75
2021/03/11 04:28:48;;;;;;;5.23;2.00;;;8.60;1.00;;;12.21;63.16;97303.88;4991559;28;20255;-74
2021/03/11 04:31:14;;;;;;;2.83;1.77;;;8.70;1.00;;;12.13;63.98;97320.22;4980234;28;20208;-74
2021/03/11 04:33:42;;;;;;;4.60;2.10;;;8.80;1.00;;;12.11;64.49;97311.63;4990786;28;20212;-74
2021/03/11 04:36:09;;;;;;;3.77;1.80;;;8.80;1.00;;;12.13;64.40;97307.69;4984404;28;20712;-75
2021/03/11 04:38:36;;;;;;;4.00;2.27;;;8.90;1.00;;;12.37;63.37;97304.03;4979087;28;20676;-75
2021/03/11 04:41:03;;;;;;;4.90;2.03;;;8.80;1.00;;;12.23;64.70;97293.75;4983261;28;20201;-75
2021/03/11 04:43:31;;;;;;;3.17;2.10;;;8.80;1.00;;;12.18;64.60;97292.56;4981078;28;20206;-74
2021/03/11 04:45:58;;;;;;;3.77;2.37;;;8.80;1.00;;;12.18;65.15;97312.34;4979123;28;20240;-74
2021/03/11 04:48:27;;;;;;;3.90;2.17;;;8.80;1.00;;;12.16;65.92;97299.19;4987647;28;20200;-74
2021/03/11 04:50:55;;;;;;;4.17;1.87;;;8.80;1.00;;;12.12;65.71;97300.72;4975783;28;20578;-74
2021/03/11 04:53:21;;;;;;;3.27;2.33;;;8.90;1.00;;;12.28;64.93;97308.09;4986787;28;20673;-74
2021/03/11 04:55:49;;;;;;;3.47;2.27;;;8.90;1.00;;;12.10;66.32;97300.09;4991368;28;20223;-74
2021/03/11 04:58:16;;;;;;;4.23;2.20;;;8.80;1.00;;;12.05;66.45;97291.16;4988210;28;20220;-74
2021/03/11 05:00:48;;;;;;;3.80;2.10;;;8.90;1.00;;;12.20;66.09;97300.38;4985372;28;20671;-75
2021/03/11 05:03:16;;;;;;;3.23;1.87;;;8.90;1.00;;;12.42;65.22;97314.88;4977798;28;20304;-74
2021/03/11 05:05:44;;;;;;;5.00;2.17;;;8.90;1.00;;;12.38;65.84;97303.78;4976857;28;20639;-74
2021/03/11 05:08:11;;;;;;;4.70;2.10;;;8.80;1.00;;;12.28;67.31;97303.53;4981074;28;20557;-74
2021/03/11 05:10:39;;;;;;;2.73;1.83;;;8.90;1.00;;;12.44;66.20;97304.75;4990948;28;20209;-74
2021/03/11 05:13:07;;;;;;;3.27;2.10;;;8.90;1.00;;;12.47;66.00;97292.75;4986420;28;20221;-75
2021/03/11 05:15:33;;;;;;;3.57;2.00;;;9.00;1.00;;;12.20;67.74;97302.25;4988238;28;20234;-75
2021/03/11 05:18:01;;;;;;;3.93;1.90;;;8.90;1.00;;;12.36;66.96;97297.03;4989895;28;20739;-75
2021/03/11 05:20:28;;;;;;;3.00;1.87;;;8.90;1.00;;;11.91;69.75;97306.53;4989131;28;20622;-75
2021/03/11 05:22:56;;;;;;;5.63;2.30;;;8.90;1.00;;;12.29;68.64;97307.03;4981939;28;20329;-74
2021/03/11 05:25:22;;;;;;;7.73;2.37;;;8.90;1.00;;;12.12;68.75;97302.56;4984692;28;20233;-74
2021/03/11 05:27:48;;;;;;;2.60;2.00;;;9.00;1.00;;;12.35;67.90;97299.97;4985466;28;20241;-74
2021/03/11 05:30:17;;;;;;;3.97;1.93;;;8.90;1.00;;;11.86;69.87;97289.56;4992937;28;20213;-75
2021/03/11 05:32:43;;;;;;;6.90;2.23;;;8.90;1.00;;;11.82;71.17;97284.66;4991182;28;20210;-74
2021/03/11 05:35:11;;;;;;;4.97;1.90;;;8.90;1.00;;;12.23;69.34;97291.91;4991372;28;20609;-74
2021/03/11 05:37:38;;;;;;;2.50;1.57;;;8.90;1.00;;;12.01;71.08;97288.09;4991735;28;20561;-75
2021/03/11 05:40:09;;;;;;;4.77;2.00;;;8.80;1.00;;;12.17;70.28;97287.47;4985636;28;20206;-74
2021/03/11 05:42:37;;;;;;;6.13;2.30;;;8.80;1.00;;;12.17;70.75;97290.16;4990210;28;20208;-74
2021/03/11 05:45:07;;;;;;;4.47;2.30;;;8.80;1.00;;;11.96;71.95;97297.84;4988523;28;20225;-74
2021/03/11 05:47:35;;;;;;;7.03;2.23;;;8.80;1.00;;;12.18;71.45;97307.00;4987480;28;20205;-75
2021/03/11 05:50:05;;;;;;;3.17;2.00;;;8.70;1.00;;;12.23;70.77;97291.06;4992258;28;20201;-74
2021/03/11 05:52:33;;;;;;;4.40;2.13;;;8.70;1.00;;;12.05;73.03;97299.97;4989274;28;20553;-75
2021/03/11 05:55:00;;;;;;;3.97;1.97;;;8.80;1.00;;;12.06;72.70;97282.88;4988014;28;20228;-74
2021/03/11 05:57:26;;;;;;;4.23;1.73;;;8.80;1.00;;;12.12;72.13;97290.00;4981888;28;20716;-74
2021/03/11 05:59:55;;;;;;;6.20;2.00;;;8.80;1.00;;;12.01;72.64;97281.94;4985803;28;20216;-75
2021/03/11 06:02:24;;;;;;;5.90;2.03;;;8.80;1.00;;;12.22;72.21;97300.16;4986853;28;20214;-73
2021/03/11 06:04:52;;;;;;;4.07;1.83;;;8.90;1.00;;;12.38;71.73;97274.34;4991289;28;20654;-74
2021/03/11 06:07:19;;;;;;;4.47;2.00;;;8.80;1.00;;;12.23;72.16;97282.00;4988996;28;20684;-74
2021/03/11 06:09:48;;;;;;;7.93;2.00;;;8.90;1.00;;;12.03;73.75;97265.44;4990487;28;20702;-74
2021/03/11 06:12:16;;;;;;;7.57;1.97;;;8.90;1.00;;;12.32;72.63;97264.56;4990253;28;20214;-76
2021/03/11 06:14:47;;;;;;;2.00;1.43;;;8.80;1.00;;;12.23;73.47;97250.94;4986180;28;20838;-78
2021/03/11 06:17:16;;;;;;;3.67;2.07;;;8.80;1.00;;;12.06;74.59;97256.13;4989304;28;20216;-78
2021/03/11 06:19:43;;;;;;;4.80;1.70;;;8.80;1.00;;;12.12;75.11;97238.38;4992974;28;20749;-75
2021/03/11 06:22:10;;;;;;;4.57;1.83;;;8.80;1.00;;;12.05;74.81;97238.47;4983102;28;20587;-75
2021/03/11 06:24:36;;;;;;;2.40;1.33;;;8.80;1.00;;;12.15;75.11;97224.56;4989376;28;20223;-75
2021/03/11 06:27:05;;;;;;;2.67;1.70;;;9.00;1.00;;;12.13;73.78;97222.91;4987343;28;20202;-79
2021/03/11 06:29:39;;;;;;;2.43;1.60;;;9.00;1.00;;;12.33;73.04;97215.38;4982693;28;20208;-75
2021/03/11 06:32:07;;;;;;;2.67;1.60;;;8.90;1.00;;;12.19;73.35;97205.13;4980809;28;20214;-76
2021/03/11 06:34:39;;;;;;;3.83;1.50;;;9.00;1.00;;;12.31;72.86;97208.63;4980866;28;20206;-77
2021/03/11 06:37:06;;;;;;;5.90;1.77;;;9.00;1.00;;;12.36;71.91;97222.13;4989986;28;20236;-76
2021/03/11 06:39:38;;;;;;;3.17;1.77;;;9.10;1.00;;;12.27;71.80;97220.03;4984956;28;20198;-78
2021/03/11 06:42:08;;;;;;;4.50;1.70;;;9.20;1.00;;;12.41;70.72;97216.09;4990081;28;20200;-80
2021/03/11 06:44:39;;;;;;;6.93;2.00;;;9.30;1.00;;;12.73;68.87;97227.03;4989076;28;20277;-76
2021/03/11 06:47:08;;;;;;;2.47;1.40;;;9.30;1.00;;;12.52;69.32;97229.47;4993890;28;20208;-80
2021/03/11 06:49:35;;;;;;;2.97;1.70;;;9.30;1.00;;;12.69;68.48;97228.53;4988809;28;20265;-77
2021/03/11 06:52:13;;;;;;;3.60;1.50;;;9.40;1.00;;;12.57;68.89;97229.59;4993664;28;20203;-74
2021/03/11 06:54:58;;;;;;;2.73;2.00;;;9.40;1.00;;;12.63;67.96;97214.47;4987432;28;20208;-74
2021/03/11 06:57:32;;;;;;;2.83;1.67;;;9.50;1.00;;;12.72;68.17;97219.22;4987250;28;20237;-74
2021/03/11 07:00:00;;;;;;;4.70;1.77;;;9.60;99.90;;;12.92;66.64;97214.31;4986883;28;20202;-75
2021/03/11 07:02:28;;;;;;;3.93;1.47;;;9.60;1.00;;;12.86;67.06;97222.50;4981380;28;20214;-75
2021/03/11 07:04:56;;;;;;;3.63;2.00;;;9.60;1.00;;;12.83;66.95;97219.22;4991946;28;20676;-76
2021/03/11 07:07:24;;;;;;;3.00;1.63;;;9.60;1.00;;;12.99;65.96;97230.31;4990587;28;20290;-79
2021/03/11 07:09:53;;;;;;;9.30;1.40;;;;;;;12.74;68.17;97233.22;4984280;28;20577;-82
2021/03/11 07:12:20;;;;;;;5.33;1.80;;;;;;;13.00;65.91;97239.97;4990870;28;20207;-79
2021/03/11 07:14:50;;;;;;;2.10;1.30;;;;;;;13.12;65.62;97241.59;4982534;28;20210;-75
2021/03/11 07:17:21;;;;;;;6.40;1.40;;;;;;;13.26;64.57;97226.06;4992990;28;20237;-76
2021/03/11 07:20:05;;;;;;;3.60;1.40;;;;;;;13.30;64.61;97243.31;4989635;28;20212;-79
2021/03/11 07:22:32;;;;;;;8.30;2.03;;;;;;;13.42;64.34;97223.47;4981968;28;20683;-77
2021/03/11 07:24:59;;;;;;;3.03;1.20;;;;;;;13.41;64.13;97229.88;4976647;28;20228;-76
2021/03/11 07:27:27;;;;;;;5.30;1.57;;;;;;;13.10;65.87;97222.25;4985496;28;20300;-80
2021/03/11 07:30:03;;;;;;;2.97;1.20;;;;;;;13.36;65.36;97221.75;4980494;28;20601;-79
2021/03/11 07:32:30;;;;;;;1.90;1.30;;;;;;;13.36;64.94;97235.13;4980468;28;20208;-79
2021/03/11 07:34:57;;;;;;;2.90;1.20;;;;;;;13.31;65.91;97224.31;4988556;28;20215;-77
2021/03/11 07:37:25;;;;;;;2.63;1.40;;;;;;;13.63;64.27;97224.69;4988529;28;20228;-76
2021/03/11 07:39:56;;;;;;;3.00;1.30;;;;;;;13.57;65.19;97217.59;4989479;28;20284;-77
2021/03/11 07:42:23;;;;;;;4.03;1.33;;;;;;;13.66;64.79;97224.19;4987140;28;20686;-77
2021/03/11 07:44:50;;;;;;;7.23;2.03;;;;;;;13.64;65.54;97227.13;4987994;28;20226;-76
2021/03/11 07:47:18;;;;;;;1.53;1.37;;;;;;;13.88;64.09;97233.22;4990833;28;20212;-76
2021/03/11 07:49:45;;;;;;;1.43;1.13;;;;;;;13.64;65.29;97239.72;4979186;28;20252;-77
2021/03/11 07:52:12;;;;;;;57.53;3.20;;;;;;;13.42;66.83;97210.06;4984350;28;20219;-76
2021/03/11 07:54:39;;;;;;;2.73;1.03;;;;;;;13.73;65.16;97203.44;4981949;28;20214;-76
2021/03/11 07:57:06;;;;;;;9.30;1.93;;;;;;;13.95;64.42;97223.13;4991354;28;20579;-77
2021/03/11 07:59:34;;;;;;;4.03;1.37;;;;;;;13.92;65.07;97223.63;4982829;28;20215;-77
2021/03/11 08:02:02;;;;;;;3.93;1.57;;;;;;;14.13;64.18;97212.22;4984201;28;20254;-76
2021/03/11 08:04:33;;;;;;;4.10;1.00;;;;;;;14.10;63.92;97202.78;4982409;28;20216;-76
2021/03/11 08:07:19;;;;;;;4.00;1.10;;;;;;;14.48;62.32;97196.72;4990485;28;20319;-77
2021/03/11 08:09:46;;;;;;;2.10;1.00;;;;;;;14.41;62.76;97198.75;4990462;28;20208;-77
2021/03/11 08:12:34;;;;;;;3.47;1.40;;;;;;;14.41;62.27;97209.47;4983850;28;20208;-77
2021/03/11 08:15:02;;;;;;;2.63;1.20;;;;;;;14.74;60.72;97202.22;4984492;28;20724;-76
2021/03/11 08:17:54;;;;;;;2.90;1.00;;;;;;;14.59;61.03;97199.28;4989810;28;20232;-77
2021/03/11 08:20:38;;;;;;;2.30;1.10;;;;;;;14.93;59.72;97202.75;4979875;28;20223;-76
2021/03/11 08:23:11;;;;;;;2.83;0.97;;;;;;;14.89;59.43;97194.38;4985769;28;20206;-77
2021/03/11 08:25:44;;;;;;;2.20;1.00;;;;;;;14.96;59.38;97202.25;4981120;28;20235;-77
2021/03/11 08:28:47;;;;;;;4.87;1.60;;;;;;;15.01;58.55;97195.09;4983977;28;20640;-73
2021/03/11 08:31:15;;;;;;;1.37;0.90;;;;;;;15.05;58.25;97206.16;4986233;28;20207;-72
2021/03/11 08:33:49;;;;;;;2.23;1.17;;;;;;;14.80;59.38;97197.75;4986696;28;20667;-72
2021/03/11 08:36:33;;;;;;;2.93;1.03;;;;;;;15.12;57.83;97191.47;4985792;28;20299;-73
2021/03/11 08:39:01;;;;;;;1.77;1.00;;;;;;;14.88;59.14;97173.13;4979840;28;20238;-72
2021/03/11 08:41:31;;;;;;;1.17;0.90;;;;;;;15.52;56.54;97177.75;4987214;28;20208;-73
2021/03/11 08:43:58;;;;;;;2.30;1.17;;;;;;;15.19;57.40;97159.03;4987397;28;20302;-72
2021/03/11 08:46:49;;;;;;;1.50;0.97;;;;;;;15.26;56.79;97149.72;4988389;28;20243;-73
2021/03/11 08:49:36;;;;;;;9.43;1.20;;;;;;;15.48;56.61;97152.41;4986266;28;20204;-72
2021/03/11 08:52:04;;;;;;;1.70;0.93;;;;;;;15.33;58.36;97152.19;4988569;28;20200;-72
2021/03/11 08:54:31;;;;;;;5.13;1.10;;;;;;;15.36;59.05;97147.19;4980556;28;20216;-72
2021/03/11 08:56:58;;;;;;;6.17;1.17;;;;;;;14.74;62.40;97135.06;4983964;28;20231;-72
2021/03/11 08:59:45;;;;;;;5.37;1.40;;;;;;;15.52;58.76;97148.16;4987495;28;20203;-73
2021/03/11 09:02:34;;;;;;;4.97;1.20;;;;;;;15.99;57.39;97147.28;4988017;28;20210;-73
2021/03/11 09:05:00;;;;;;;4.00;1.50;;;;;;;15.61;58.82;97136.69;4978827;28;20273;-73
2021/03/11 09:07:33;;;;;;;1.70;0.90;;;;;;;16.39;55.91;97141.41;4980444;28;20271;-72
2021/03/11 09:10:00;;;;;;;2.50;1.13;;;;;;;15.79;58.47;97136.34;4986808;28;20297;-72
2021/03/11 09:12:37;;;;;;;6.47;0.93;;;;;;;16.12;57.08;97135.28;4981653;28;20221;-72
2021/03/11 09:15:06;;;;;;;1.43;0.83;;;;;;;15.82;58.00;97084.72;4980365;28;20246;-73
2021/03/11 09:17:34;;;;;;;3.60;0.90;;;;;;;16.28;56.76;97128.94;4983374;28;20594;-73
2021/03/11 09:20:03;;;;;;;6.93;1.27;;;;;;;16.20;56.78;97115.97;4984864;28;20209;-73
2021/03/11 09:22:32;;;;;;;4.20;1.40;;;;;;;16.65;54.61;97129.78;4982184;28;20223;-72
2021/03/11 09:25:01;;;;;;;1.57;1.03;;;;;;;16.27;55.55;97136.22;4984405;28;20691;-72
2021/03/11 09:27:29;;;;;;;3.67;1.00;;;;;;;16.58;54.38;97142.66;4988970;28;20208;-76
2021/03/11 09:29:56;;;;;;;1.73;0.80;;;;;;;16.92;53.15;97143.97;4990155;28;20214;-73
2021/03/11 09:32:28;;;;;;;5.23;0.90;;;;;;;16.67;54.24;97143.81;5002107;28;20218;-75
2021/03/11 09:34:56;;;;;;;2.27;0.90;;;;;;;16.70;53.32;97148.66;4998580;28;20573;-72
2021/03/11 09:37:50;;;;;;;4.30;0.90;;;;;;;16.45;54.13;97133.16;4987010;28;20227;-73
2021/03/11 09:40:24;;;;;;;1.60;0.90;;;;;;;16.30;54.66;97133.00;4986381;28;20222;-72
2021/03/11 09:43:17;;;;;;;2.30;0.80;;;;;;;16.66;53.17;97123.34;4984692;28;20283;-73
2021/03/11 09:45:49;;;;;;;1.97;1.00;;;;;;;16.75;52.96;97124.44;4986836;28;20995;-72
2021/03/11 09:48:18;;;;;;;1.87;0.87;;;;;;;16.83;52.38;97116.66;4983604;28;20298;-74
2021/03/11 09:51:00;;;;;;;2.20;0.90;;;;;;;16.94;52.43;97112.16;4986867;28;20204;-72
2021/03/11 09:53:37;;;;;;;0.87;0.63;;;;;;;16.88;51.68;97126.69;4980811;28;20762;-74
2021/03/11 09:56:06;;;;;;;3.13;1.13;;;;;;;17.07;52.02;97119.78;4987569;28;20236;-73
2021/03/11 09:58:33;;;;;;;2.97;0.83;;;;;;;16.91;52.68;97116.19;4986734;28;20199;-72
2021/03/11 10:01:00;;;;;;;1.60;0.80;;;;;;;16.52;54.24;97128.34;4989519;28;20208;-73
2021/03/11 10:03:28;;;;;;;1.00;0.67;;;;;;;16.41;54.94;97115.09;4983217;28;20563;-75
2021/03/11 10:05:57;;;;;;;4.80;0.90;;;;;;;16.17;56.93;97097.66;4983543;28;20235;-75
2021/03/11 10:08:32;;;;;;;5.03;1.47;;;;;;;16.61;55.39;97107.94;4983143;28;20217;-73
2021/03/11 10:11:06;;;;;;;0.83;0.60;;;;;;;16.88;54.46;97105.91;4986268;28;20207;-73
2021/03/11 10:13:35;;;;;;;1.57;0.80;;;;;;;17.40;53.08;97095.91;4988039;28;20226;-74
2021/03/11 10:16:03;;;;;;;4.07;1.17;;;;;;;17.06;54.83;97081.22;4986061;28;20237;-73
2021/03/11 10:18:29;;;;;;;0.93;0.70;;;;;;;17.59;52.57;97104.31;4990912;28;20212;-72
2021/03/11 10:21:01;;;;;;;0.77;0.67;;;;;;;17.65;52.74;97092.47;4985921;28;20268;-72
2021/03/11 10:23:27;;;;;;;1.20;0.60;;;;;;;17.62;53.42;97118.09;4991146;28;20216;-71
2021/03/11 10:26:14;;;;;;;0.67;0.57;;;;;;;17.60;53.79;97114.03;4989940;28;20230;-72
2021/03/11 10:28:42;;;;;;;2.27;0.70;;;;;;;17.33;55.29;97108.81;4983669;28;20288;-72
2021/03/11 10:31:10;;;;;;;2.53;0.70;;;;;;;17.08;56.85;97095.22;4992741;28;20212;-71
2021/03/11 10:33:38;;;;;;;2.63;0.70;;;;;;;17.35;56.29;97089.66;4988621;28;20223;-73
2021/03/11 10:36:16;;;;;;;2.10;0.60;;;;;;;16.79;58.13;97079.75;4990135;28;20239;-72
2021/03/11 10:39:03;;;;;;;4.00;0.70;;;13.90;1.00;;;16.91;58.49;97100.00;4986324;28;20212;-72
2021/03/11 10:41:31;;;;;;;3.23;0.70;;;13.80;1.00;;;17.08;58.75;97089.84;4983765;28;20700;-72
2021/03/11 10:44:22;;;;;;;0.87;0.60;;;13.80;1.00;;;16.83;60.23;97081.63;4980622;28;20216;-72
2021/03/11 10:46:48;;;;;;;0.70;0.60;;;13.70;1.00;;;17.24;59.18;97083.44;4976581;28;20700;-72
2021/03/11 10:49:15;;;;;;;1.77;0.67;;;13.60;1.00;;;17.17;59.21;97090.16;4992853;28;20214;-73
2021/03/11 10:51:43;;;;;;;0.70;0.60;;;13.70;1.00;;;17.03;60.87;97081.72;4991086;28;20303;-73
2021/03/11 10:54:28;;;;;;;0.83;0.57;;;13.60;1.00;;;16.72;62.24;97079.97;4989184;28;20212;-75
2021/03/11 10:57:14;;;;;;;1.33;0.50;;;13.50;1.00;;;16.61;64.08;97099.84;4986529;28;20228;-74
2021/03/11 10:59:58;;;;;;;1.87;0.80;;;13.40;1.00;;;16.39;66.16;97091.09;4987367;28;20207;-77
2021/03/11 11:02:26;;;;;;;3.27;0.80;;;13.30;1.00;;;16.56;65.97;97085.56;4981394;28;20669;-83